Saint Louis, Missouri
Traffic Map
Current Weather Conditions
Saint Louis, Missouri
Clear Haze
Clear
20°
Feels Like: 20°
Wind Chill: 20° Ceiling: Unl
Heat Index: 20° Visibility: 1.7mi
Dew Point: 19° Wind: 0mph
Humidity: 93% Direction: ° ()
Pressure: 29.95in Gusts: 0mph
Raw Report DataKCPS 040658Z AUTO 00000KT 1 3/4SM BR CLR 20/19 A2995 RMK AO2 T02000189 $
Traffic Incident Summary
Active as of:
Severity:
Category:
InformationThere was an issue retrieving the traffic information for this location. Please try a different location or try again shortly.
Advertisements
Track Severe Weather on mobile